createdAt,value
2018-07-22T00:01:17.093Z,20.5
2018-07-22T00:11:31.499Z,20.4
2018-07-22T00:21:45.845Z,20.2
2018-07-22T00:32:00.146Z,20.1
2018-07-22T00:42:45.877Z,19.8
2018-07-22T00:53:31.863Z,19.7
2018-07-22T01:04:17.490Z,19.6
2018-07-22T01:15:02.932Z,19.4
2018-07-22T01:25:48.936Z,19.3
2018-07-22T01:36:35.093Z,19.1
2018-07-22T01:46:49.197Z,19.1
2018-07-22T01:57:03.217Z,19.0
2018-07-22T02:07:17.778Z,18.8
2018-07-22T02:17:31.684Z,18.6
2018-07-22T02:27:45.823Z,18.5
2018-07-22T02:38:33.384Z,18.2
2018-07-22T02:49:19.622Z,18.0
2018-07-22T02:59:33.722Z,18.0
2018-07-22T03:10:20.129Z,17.8
2018-07-22T03:21:05.780Z,17.6
2018-07-22T03:31:51.999Z,17.5
2018-07-22T03:42:06.050Z,17.5
2018-07-22T03:52:20.285Z,17.4
2018-07-22T04:02:35.114Z,17.2
2018-07-22T04:12:48.641Z,17.1
2018-07-22T04:23:17.814Z,17.0
2018-07-22T04:33:32.331Z,16.9
2018-07-22T04:44:17.893Z,16.9
2018-07-22T04:55:05.589Z,16.9
2018-07-22T05:05:51.307Z,17.0
2018-07-22T05:16:37.062Z,17.1
2018-07-22T05:27:22.839Z,17.2
2018-07-22T05:38:08.874Z,17.3
2018-07-22T05:48:54.496Z,17.5
2018-07-22T05:59:40.192Z,17.7
2018-07-22T06:10:26.287Z,17.9
2018-07-22T06:20:40.874Z,17.9
2018-07-22T06:30:54.513Z,18.1
2018-07-22T06:41:06.856Z,18.4
2018-07-22T06:51:52.276Z,19.2
2018-07-22T07:02:38.077Z,19.9
2018-07-22T07:13:23.528Z,20.7
2018-07-22T07:23:37.860Z,20.7
2018-07-22T07:33:52.318Z,21.2
2018-07-22T07:44:06.652Z,21.9
2018-07-22T07:54:18.346Z,23.3
2018-07-22T08:04:32.492Z,25.1
2018-07-22T08:14:45.853Z,27.0
2018-07-22T08:25:00.093Z,28.6
2018-07-22T08:35:14.257Z,29.9
2018-07-22T08:45:28.260Z,31.2
2018-07-22T08:55:42.215Z,32.5
2018-07-22T09:05:55.750Z,33.7
2018-07-22T09:16:08.957Z,34.7
2018-07-22T09:26:22.465Z,35.8
2018-07-22T09:36:36.860Z,36.7
2018-07-22T09:47:22.633Z,37.9
2018-07-22T09:57:37.190Z,37.9
2018-07-22T10:07:51.089Z,38.4
2018-07-22T10:18:05.717Z,38.9
2018-07-22T10:28:35.383Z,39.3
2018-07-22T10:38:49.655Z,39.5
2018-07-22T10:53:17.636Z,40.7
2018-07-22T11:18:52.052Z,41.1
2018-07-22T11:58:08.647Z,39.7
2018-07-22T12:08:23.508Z,39.7
2018-07-22T12:18:37.144Z,38.9
2018-07-22T14:08:19.561Z,37.4
2018-07-22T14:18:33.969Z,37.4
2018-07-22T14:28:48.426Z,37.4
2018-07-22T14:39:34.033Z,37.3
2018-07-22T14:50:19.738Z,37.2
2018-07-22T15:00:30.859Z,37.2
2018-07-22T15:10:42.791Z,37.0
2018-07-22T15:20:56.988Z,36.6
2018-07-22T15:42:41.270Z,35.7
2018-07-22T15:52:56.267Z,35.4
2018-07-22T16:03:10.293Z,35.1
2018-07-22T16:13:24.271Z,34.7
2018-07-22T16:23:39.356Z,34.3
2018-07-22T16:33:53.887Z,33.8
2018-07-22T16:44:08.853Z,33.4
2018-07-22T16:54:30.677Z,33.1
2018-07-22T17:04:45.292Z,32.6
2018-07-22T17:14:57.708Z,32.2
2018-07-22T17:25:43.814Z,31.5
2018-07-22T17:35:57.675Z,31.5
2018-07-22T17:46:43.148Z,30.8
2018-07-22T17:57:28.494Z,30.6
2018-07-22T18:08:13.989Z,30.3
2018-07-22T18:18:28.305Z,30.3
2018-07-22T18:29:13.338Z,29.6
2018-07-22T18:39:26.911Z,29.6
2018-07-22T18:49:53.881Z,29.3
2018-07-22T19:00:05.878Z,28.9
2018-07-22T19:10:17.801Z,28.5
2018-07-22T19:21:03.099Z,27.7
2018-07-22T19:31:17.422Z,27.7
2018-07-22T19:41:29.843Z,27.4
2018-07-22T19:51:44.354Z,27.0
2018-07-22T20:01:59.186Z,26.6
2018-07-22T20:12:13.678Z,26.3
2018-07-22T20:22:59.194Z,25.5
2018-07-22T20:33:13.472Z,25.4
2018-07-22T20:43:27.167Z,25.1
2018-07-22T20:53:40.894Z,24.7
2018-07-22T21:03:56.550Z,24.3
2018-07-22T21:14:10.158Z,24.0
2018-07-22T21:24:24.370Z,23.7
2018-07-22T21:34:38.406Z,23.4
2018-07-22T21:44:52.745Z,23.1
2018-07-22T21:55:38.303Z,22.7
2018-07-22T22:05:52.740Z,22.7
2018-07-22T22:16:38.582Z,22.3
2018-07-22T22:26:50.648Z,22.3
2018-07-22T22:37:04.712Z,22.0
2018-07-22T22:47:16.005Z,21.8
2018-07-22T22:58:01.937Z,21.5
2018-07-22T23:08:50.009Z,21.4
2018-07-22T23:19:05.499Z,21.4
2018-07-22T23:29:20.084Z,21.3
2018-07-22T23:39:34.193Z,21.2
2018-07-22T23:50:19.597Z,21.2
